createdAt,value
2019-03-28T00:03:20.888Z,9.30
2019-03-28T00:09:00.027Z,7.53
2019-03-28T00:14:39.052Z,4.50
2019-03-28T00:17:47.931Z,6.77
2019-03-28T00:23:38.495Z,5.93
2019-03-28T00:29:09.719Z,11.73
2019-03-28T00:31:39.551Z,13.43
2019-03-28T00:34:28.158Z,10.47
2019-03-28T00:39:37.847Z,18.17
2019-03-28T00:42:26.503Z,13.13
2019-03-28T00:44:56.680Z,11.00
2019-03-28T00:47:45.567Z,18.27
2019-03-28T00:50:15.495Z,16.27
2019-03-28T00:52:45.615Z,14.83
2019-03-28T01:01:19.961Z,14.37
2019-03-28T01:03:49.868Z,13.43
2019-03-28T01:06:58.756Z,16.03
2019-03-28T01:12:37.867Z,12.80
2019-03-28T01:15:26.678Z,16.00
2019-03-28T01:17:56.603Z,16.97
2019-03-28T01:20:26.488Z,8.60
2019-03-28T01:26:05.503Z,12.83
2019-03-28T01:28:35.373Z,21.33
2019-03-28T01:31:05.496Z,17.67
2019-03-28T01:33:35.338Z,11.73
2019-03-28T01:36:05.506Z,18.37
2019-03-28T01:38:55.703Z,13.53
2019-03-28T01:41:25.538Z,13.43
2019-03-28T01:43:55.566Z,13.20
2019-03-28T01:46:25.392Z,15.53
2019-03-28T01:48:55.373Z,11.73
2019-03-28T01:54:41.647Z,9.73
2019-03-28T01:57:12.718Z,14.00
2019-03-28T01:59:43.226Z,10.33
2019-03-28T02:02:32.070Z,10.57
2019-03-28T02:05:01.904Z,9.20
2019-03-28T02:07:31.967Z,11.50
2019-03-28T02:10:20.796Z,11.73
2019-03-28T02:15:46.077Z,18.60
2019-03-28T02:21:25.201Z,15.70
2019-03-28T02:23:55.128Z,15.90
2019-03-28T02:26:24.967Z,17.17
2019-03-28T02:28:54.814Z,13.80
2019-03-28T02:31:24.706Z,14.23
2019-03-28T02:34:33.732Z,10.30
2019-03-28T02:37:03.556Z,11.73
2019-03-28T02:39:33.754Z,25.97
2019-03-28T02:42:03.554Z,14.63
2019-03-28T02:44:33.423Z,8.07
2019-03-28T02:47:03.253Z,11.07
2019-03-28T02:49:33.315Z,10.63
2019-03-28T02:52:03.154Z,12.27
2019-03-28T02:54:33.171Z,16.30
2019-03-28T03:00:12.467Z,15.60
2019-03-28T03:02:42.377Z,16.97
2019-03-28T03:05:31.123Z,10.33
2019-03-28T03:11:20.455Z,14.27
2019-03-28T03:14:09.155Z,12.30
2019-03-28T03:16:39.213Z,13.57
2019-03-28T03:19:09.041Z,12.17
2019-03-28T03:21:39.001Z,14.03
2019-03-28T03:27:17.967Z,11.20
2019-03-28T03:29:47.796Z,13.27
2019-03-28T03:32:17.810Z,12.87
2019-03-28T03:34:48.115Z,22.80
2019-03-28T03:37:17.947Z,10.93
2019-03-28T03:39:48.051Z,15.90
2019-03-28T03:42:17.863Z,15.13
2019-03-28T03:48:07.517Z,18.13
2019-03-28T03:50:37.589Z,14.40
2019-03-28T03:53:26.243Z,19.27
2019-03-28T03:55:56.100Z,26.33
2019-03-28T03:58:26.215Z,30.20
2019-03-28T04:00:56.084Z,23.13
2019-03-28T04:03:26.075Z,18.93
2019-03-28T04:05:55.916Z,34.13
2019-03-28T04:08:27.005Z,15.83
2019-03-28T04:10:57.259Z,37.33
2019-03-28T04:13:28.704Z,28.40
2019-03-28T04:15:58.968Z,29.63
2019-03-28T04:18:47.574Z,23.10
2019-03-28T04:24:26.815Z,33.63
2019-03-28T04:27:15.532Z,15.43
2019-03-28T04:29:45.382Z,13.13
2019-03-28T04:32:15.427Z,10.27
2019-03-28T04:37:54.938Z,10.37
2019-03-28T04:40:45.087Z,13.13
2019-03-28T04:43:15.155Z,11.03
2019-03-28T04:48:56.407Z,11.13
2019-03-28T04:51:26.392Z,12.53
2019-03-28T04:54:16.534Z,10.60
2019-03-28T04:56:46.910Z,12.13
2019-03-28T04:59:16.798Z,15.10
2019-03-28T05:02:00.895Z,9.70
2019-03-28T05:04:20.962Z,12.87
2019-03-28T05:09:56.307Z,14.73
2019-03-28T05:12:26.188Z,12.53
2019-03-28T05:14:56.114Z,10.50
2019-03-28T05:17:25.949Z,17.83
2019-03-28T05:23:03.038Z,11.10
2019-03-28T05:25:33.231Z,14.17
2019-03-28T05:28:03.074Z,9.57
2019-03-28T05:30:33.133Z,17.30
2019-03-28T05:36:08.973Z,32.37
2019-03-28T05:38:38.799Z,16.13
2019-03-28T05:44:04.664Z,14.57
2019-03-28T05:46:34.626Z,9.50
2019-03-28T05:49:06.504Z,11.37
2019-03-28T05:54:51.135Z,10.53
2019-03-28T05:57:21.048Z,10.30
2019-03-28T06:02:46.590Z,7.50
2019-03-28T06:05:35.349Z,12.07
2019-03-28T06:08:05.187Z,17.37
2019-03-28T06:13:44.218Z,13.08
2019-03-28T06:16:14.234Z,10.20
2019-03-28T06:21:32.934Z,10.30
2019-03-28T06:24:02.973Z,9.77
2019-03-28T06:26:51.675Z,13.13
2019-03-28T06:29:24.012Z,11.13
2019-03-28T06:31:55.418Z,9.23
2019-03-28T06:34:24.782Z,23.73
2019-03-28T06:36:54.659Z,11.87
2019-03-28T06:39:24.848Z,14.60
2019-03-28T06:42:13.602Z,13.63
2019-03-28T06:44:43.410Z,6.43
2019-03-28T06:47:13.437Z,7.77
2019-03-28T06:49:43.277Z,6.20
2019-03-28T06:52:13.106Z,14.67
2019-03-28T06:55:03.281Z,8.30
2019-03-28T06:57:33.126Z,6.43
2019-03-28T07:00:21.741Z,6.47
2019-03-28T07:02:51.602Z,11.17
2019-03-28T07:05:40.122Z,7.83
2019-03-28T07:14:06.634Z,5.50
2019-03-28T07:20:09.009Z,5.20
2019-03-28T07:22:38.052Z,7.10
2019-03-28T07:25:07.988Z,4.77
2019-03-28T07:30:33.771Z,7.75
2019-03-28T07:33:22.543Z,3.83
2019-03-28T07:35:52.708Z,10.40
2019-03-28T07:38:34.137Z,2.93
2019-03-28T07:41:16.447Z,5.30
2019-03-28T07:47:15.358Z,6.83
2019-03-28T07:49:45.767Z,8.17
2019-03-28T07:52:34.442Z,5.50
2019-03-28T07:55:43.868Z,3.23
2019-03-28T07:58:35.590Z,9.20
2019-03-28T08:03:47.295Z,8.20
2019-03-28T08:09:21.426Z,4.57
2019-03-28T08:11:52.598Z,4.50
2019-03-28T08:15:01.733Z,3.37
2019-03-28T08:26:42.170Z,7.83
2019-03-28T08:35:02.900Z,4.13
2019-03-28T08:46:50.745Z,9.50
2019-03-28T08:49:22.125Z,5.77
2019-03-28T08:51:54.542Z,4.00
2019-03-28T08:57:14.718Z,9.10
2019-03-28T08:59:45.050Z,3.87
2019-03-28T09:02:15.009Z,6.93
2019-03-28T09:04:45.073Z,5.93
2019-03-28T09:07:17.408Z,8.37
2019-03-28T09:09:46.627Z,5.13
2019-03-28T09:14:52.321Z,7.13
2019-03-28T09:17:23.815Z,10.77
2019-03-28T09:19:53.870Z,5.87
2019-03-28T09:22:23.739Z,6.50
2019-03-28T09:24:53.602Z,7.13
2019-03-28T09:30:51.416Z,4.27
2019-03-28T09:33:21.577Z,4.17
2019-03-28T09:35:51.501Z,4.07
2019-03-28T09:38:40.239Z,3.60
2019-03-28T09:44:11.849Z,7.43
2019-03-28T09:46:41.685Z,2.73
2019-03-28T09:49:11.588Z,7.00
2019-03-28T09:51:41.452Z,2.07
2019-03-28T09:54:11.414Z,5.27
2019-03-28T09:56:41.315Z,5.63
2019-03-28T09:59:11.310Z,5.60
2019-03-28T10:04:37.140Z,4.50
2019-03-28T10:07:07.019Z,5.10
2019-03-28T10:09:55.977Z,6.07
2019-03-28T10:12:25.828Z,3.87
2019-03-28T10:14:55.697Z,2.77
2019-03-28T10:17:25.565Z,5.27
2019-03-28T10:19:55.529Z,6.23
2019-03-28T10:22:25.378Z,6.87
2019-03-28T10:24:55.204Z,4.80
2019-03-28T10:27:25.053Z,8.60
2019-03-28T10:29:54.962Z,3.73
2019-03-28T10:32:24.894Z,5.43
2019-03-28T10:34:54.828Z,2.63
2019-03-28T10:37:43.574Z,2.73
2019-03-28T10:40:13.410Z,4.07
2019-03-28T10:42:43.466Z,2.77
2019-03-28T10:45:13.370Z,5.83
2019-03-28T10:47:43.313Z,2.23
2019-03-28T10:50:52.242Z,4.67
2019-03-28T10:53:22.292Z,5.00
2019-03-28T10:55:52.152Z,4.67
2019-03-28T10:58:21.992Z,3.77
2019-03-28T11:00:54.648Z,2.20
2019-03-28T11:06:12.212Z,4.03
2019-03-28T11:08:42.912Z,4.20
2019-03-28T11:11:12.814Z,4.33
2019-03-28T11:13:42.833Z,1.80
2019-03-28T11:19:01.479Z,4.43
2019-03-28T11:21:34.326Z,7.23
2019-03-28T11:24:03.636Z,3.37
2019-03-28T11:26:33.466Z,3.43
2019-03-28T11:31:57.767Z,4.57
2019-03-28T11:34:27.759Z,5.67
2019-03-28T11:36:58.526Z,3.43
2019-03-28T11:42:18.297Z,4.27
2019-03-28T11:44:48.107Z,2.23
2019-03-28T11:47:18.022Z,3.30
2019-03-28T11:49:47.876Z,3.60
2019-03-28T11:52:17.723Z,4.90
2019-03-28T11:54:47.612Z,5.57
2019-03-28T11:57:17.493Z,8.77
2019-03-28T11:59:47.459Z,3.57
2019-03-28T12:02:20.321Z,4.67
2019-03-28T12:04:49.224Z,7.27
2019-03-28T12:07:19.067Z,2.90
2019-03-28T12:09:49.603Z,5.90
2019-03-28T12:12:19.507Z,4.07
2019-03-28T12:14:49.405Z,3.23
2019-03-28T12:17:19.295Z,2.57
2019-03-28T12:19:49.271Z,6.97
2019-03-28T12:22:19.320Z,5.07
2019-03-28T12:24:49.201Z,4.40
2019-03-28T12:27:19.158Z,2.33
2019-03-28T12:29:49.810Z,2.87
2019-03-28T12:32:20.857Z,3.87
2019-03-28T12:34:50.717Z,2.43
2019-03-28T12:37:39.310Z,5.73
2019-03-28T12:43:05.631Z,3.03
2019-03-28T12:45:35.452Z,3.37
2019-03-28T12:48:05.287Z,6.53
2019-03-28T12:50:58.950Z,3.93
2019-03-28T12:53:25.611Z,4.67
2019-03-28T12:55:55.439Z,2.17
2019-03-28T12:58:25.396Z,5.67
2019-03-28T13:00:55.441Z,2.80
2019-03-28T13:03:25.280Z,4.03
2019-03-28T13:05:55.466Z,3.60
2019-03-28T13:08:25.321Z,3.80
2019-03-28T13:10:55.331Z,4.93
2019-03-28T13:16:00.539Z,4.87
2019-03-28T13:18:30.565Z,3.97
2019-03-28T13:21:12.679Z,2.63
2019-03-28T13:23:32.007Z,6.10
2019-03-28T13:26:01.856Z,8.23
2019-03-28T13:28:50.580Z,6.60
2019-03-28T13:31:20.420Z,9.23
2019-03-28T13:34:08.925Z,7.10
2019-03-28T13:36:38.747Z,4.97
2019-03-28T13:39:09.016Z,4.40
2019-03-28T13:41:38.824Z,7.63
2019-03-28T13:44:12.030Z,10.60
2019-03-28T13:46:40.400Z,9.17
2019-03-28T13:49:10.261Z,3.37
2019-03-28T13:51:40.090Z,7.50
2019-03-28T13:54:09.927Z,11.40
2019-03-28T13:56:39.795Z,11.83
2019-03-28T13:59:28.532Z,11.00
2019-03-28T14:01:58.535Z,13.53
2019-03-28T14:04:28.348Z,11.53
2019-03-28T14:06:58.241Z,7.67
2019-03-28T14:09:28.055Z,10.60
2019-03-28T14:11:58.115Z,9.27
2019-03-28T14:14:27.985Z,6.07
2019-03-28T14:16:57.847Z,10.90
2019-03-28T14:19:27.694Z,7.60
2019-03-28T14:21:57.834Z,10.80
2019-03-28T14:24:27.701Z,9.67
2019-03-28T14:26:57.920Z,6.70
2019-03-28T14:29:29.982Z,9.37
2019-03-28T14:31:59.990Z,7.17
2019-03-28T14:34:29.935Z,10.03
2019-03-28T14:36:59.887Z,5.00
2019-03-28T14:39:29.946Z,10.97
2019-03-28T14:41:59.753Z,7.53
2019-03-28T14:44:29.865Z,10.00
2019-03-28T14:46:59.807Z,12.50
2019-03-28T14:49:29.702Z,9.27
2019-03-28T14:51:59.585Z,10.90
2019-03-28T14:54:29.410Z,7.30
2019-03-28T14:57:00.275Z,12.67
2019-03-28T14:59:51.289Z,12.33
2019-03-28T15:02:21.147Z,11.27
2019-03-28T15:04:51.294Z,12.93
2019-03-28T15:07:21.118Z,12.10
2019-03-28T15:09:53.299Z,12.33
2019-03-28T15:12:23.200Z,11.13
2019-03-28T15:14:53.980Z,12.53
2019-03-28T15:17:24.122Z,13.03
2019-03-28T15:19:53.949Z,12.93
2019-03-28T15:22:24.424Z,10.03
2019-03-28T15:24:54.265Z,14.03
2019-03-28T15:27:24.413Z,8.17
2019-03-28T15:29:54.303Z,8.83
2019-03-28T15:32:24.396Z,9.93
2019-03-28T15:38:03.406Z,13.47
2019-03-28T15:40:52.490Z,8.30
2019-03-28T15:43:22.346Z,5.97
2019-03-28T15:45:52.230Z,9.77
2019-03-28T15:48:22.101Z,11.97
2019-03-28T15:50:51.942Z,10.87
2019-03-28T15:53:21.917Z,8.57
2019-03-28T15:55:51.777Z,12.20
2019-03-28T15:58:23.390Z,13.63
2019-03-28T16:00:53.316Z,8.07
2019-03-28T16:03:23.291Z,14.50
2019-03-28T16:05:58.451Z,6.90
2019-03-28T16:08:24.751Z,11.23
2019-03-28T16:10:54.844Z,10.37
2019-03-28T16:13:24.745Z,6.80
2019-03-28T16:15:54.957Z,8.83
2019-03-28T16:18:24.800Z,14.73
2019-03-28T16:20:54.773Z,5.13
2019-03-28T16:23:24.602Z,9.17
2019-03-28T16:25:54.466Z,12.43
2019-03-28T16:31:33.477Z,8.50
2019-03-28T16:34:22.096Z,9.90
2019-03-28T16:36:51.960Z,12.17
2019-03-28T16:39:21.851Z,6.63
2019-03-28T16:41:51.775Z,8.27
2019-03-28T16:44:21.619Z,14.77
2019-03-28T16:46:51.655Z,5.53
2019-03-28T16:49:21.495Z,9.40
2019-03-28T16:51:51.818Z,8.30
2019-03-28T16:54:23.019Z,11.73
2019-03-28T16:56:53.727Z,5.33
2019-03-28T16:59:24.761Z,5.13
2019-03-28T17:01:54.613Z,8.57
2019-03-28T17:04:24.540Z,6.67
2019-03-28T17:06:54.391Z,5.97
2019-03-28T17:09:43.099Z,13.23
2019-03-28T17:12:13.043Z,5.83
2019-03-28T17:14:42.888Z,10.00
2019-03-28T17:17:12.699Z,11.17
2019-03-28T17:19:43.034Z,11.10
2019-03-28T17:22:13.291Z,6.93
2019-03-28T17:24:43.161Z,5.27
2019-03-28T17:27:13.136Z,9.53
2019-03-28T17:29:43.105Z,7.03
2019-03-28T17:32:13.284Z,8.33
2019-03-28T17:34:45.952Z,10.53
2019-03-28T17:37:15.091Z,7.10
2019-03-28T17:39:45.127Z,13.13
2019-03-28T17:42:14.969Z,9.27
2019-03-28T17:44:45.044Z,9.60
2019-03-28T17:47:14.961Z,12.20
2019-03-28T17:52:54.404Z,8.37
2019-03-28T17:55:24.447Z,8.60
2019-03-28T17:57:54.330Z,8.20
2019-03-28T18:00:27.724Z,10.03
2019-03-28T18:03:08.467Z,8.27
2019-03-28T18:05:27.706Z,7.50
2019-03-28T18:07:57.621Z,11.17
2019-03-28T18:10:27.509Z,7.83
2019-03-28T18:13:16.125Z,5.90
2019-03-28T18:15:46.484Z,8.00
2019-03-28T18:18:16.380Z,5.40
2019-03-28T18:21:05.072Z,12.30
2019-03-28T18:23:34.900Z,8.93
2019-03-28T18:28:53.610Z,7.13
2019-03-28T18:31:23.442Z,6.90
2019-03-28T18:34:12.421Z,9.60
2019-03-28T18:36:43.571Z,5.27
2019-03-28T18:39:13.403Z,5.70
2019-03-28T18:44:18.693Z,7.40
2019-03-28T18:47:08.944Z,7.57
2019-03-28T18:49:38.793Z,7.20
2019-03-28T18:52:08.814Z,9.07
2019-03-28T18:54:38.650Z,7.47
2019-03-28T18:57:08.907Z,9.10
2019-03-28T18:59:38.968Z,12.47
2019-03-28T19:02:09.270Z,11.37
2019-03-28T19:04:39.148Z,9.07
2019-03-28T19:10:44.201Z,7.37
2019-03-28T19:13:14.165Z,5.70
2019-03-28T19:16:02.764Z,7.07
2019-03-28T19:18:44.415Z,5.20
2019-03-28T19:21:25.012Z,3.63
2019-03-28T19:23:54.867Z,6.43
2019-03-28T19:26:25.140Z,9.57
2019-03-28T19:28:56.312Z,8.20
2019-03-28T19:31:31.591Z,6.30
2019-03-28T19:34:20.281Z,10.97
2019-03-28T19:37:10.801Z,7.73
2019-03-28T19:42:16.358Z,9.07
2019-03-28T19:44:48.237Z,8.53
2019-03-28T19:47:18.257Z,4.67
2019-03-28T19:49:48.300Z,14.90
2019-03-28T19:52:37.081Z,13.13
2019-03-28T19:55:07.528Z,11.23
2019-03-28T19:57:38.150Z,11.73
2019-03-28T20:00:09.536Z,9.77
2019-03-28T20:02:39.465Z,6.50
2019-03-28T20:05:09.850Z,7.37
2019-03-28T20:07:39.882Z,6.37
2019-03-28T20:10:16.357Z,9.10
2019-03-28T20:12:41.761Z,9.07
2019-03-28T20:15:50.775Z,11.40
2019-03-28T20:18:21.194Z,8.23
2019-03-28T20:20:51.098Z,12.37
2019-03-28T20:23:22.129Z,14.27
2019-03-28T20:25:53.901Z,7.83
2019-03-28T20:28:26.671Z,6.67
2019-03-28T20:33:44.742Z,10.40
2019-03-28T20:36:36.235Z,6.37
2019-03-28T20:38:49.935Z,8.13
2019-03-28T20:41:36.722Z,6.73
2019-03-28T20:47:14.192Z,9.07
2019-03-28T20:49:46.659Z,11.93
2019-03-28T20:52:16.021Z,13.07
2019-03-28T20:54:46.103Z,7.60
2019-03-28T20:57:15.983Z,6.87
2019-03-28T20:59:46.893Z,8.90
2019-03-28T21:02:17.338Z,14.50
2019-03-28T21:04:47.250Z,9.27
2019-03-28T21:07:35.942Z,11.33
2019-03-28T21:10:06.599Z,13.53
2019-03-28T21:12:36.445Z,9.53
2019-03-28T21:15:07.206Z,15.03
2019-03-28T21:17:37.044Z,12.43
2019-03-28T21:23:05.188Z,8.97
2019-03-28T21:25:53.900Z,9.53
2019-03-28T21:28:25.000Z,5.73
2019-03-28T21:30:58.762Z,13.27
2019-03-28T21:33:46.139Z,6.93
2019-03-28T21:36:29.102Z,10.03
2019-03-28T21:38:47.592Z,8.53
2019-03-28T21:41:17.537Z,13.70
2019-03-28T21:43:47.440Z,17.70
2019-03-28T21:46:17.595Z,14.07
2019-03-28T21:48:47.456Z,19.17
2019-03-28T21:51:17.664Z,9.23
2019-03-28T21:53:58.979Z,11.30
2019-03-28T21:56:29.230Z,9.63
2019-03-28T21:58:59.058Z,11.90
2019-03-28T22:01:47.706Z,14.33
2019-03-28T22:04:17.992Z,12.53
2019-03-28T22:06:48.954Z,14.37
2019-03-28T22:09:19.458Z,12.30
2019-03-28T22:11:49.305Z,8.33
2019-03-28T22:14:19.139Z,10.80
2019-03-28T22:16:49.860Z,9.77
2019-03-28T22:19:19.770Z,15.17
2019-03-28T22:21:50.407Z,10.50
2019-03-28T22:24:20.266Z,9.97
2019-03-28T22:26:50.536Z,15.23
2019-03-28T22:32:29.570Z,10.03
2019-03-28T22:37:48.206Z,15.80
2019-03-28T22:40:18.194Z,12.70
2019-03-28T22:42:48.134Z,8.13
2019-03-28T22:45:18.130Z,15.70
2019-03-28T22:47:49.982Z,8.80
2019-03-28T22:50:19.833Z,15.90
2019-03-28T22:52:49.904Z,9.67
2019-03-28T22:55:19.800Z,12.77
2019-03-28T22:57:49.847Z,12.03
2019-03-28T23:03:29.266Z,15.47
2019-03-28T23:05:59.214Z,14.90
2019-03-28T23:11:04.188Z,8.00
2019-03-28T23:13:34.113Z,13.57
2019-03-28T23:16:03.940Z,17.57
2019-03-28T23:18:33.858Z,9.50
2019-03-28T23:21:03.723Z,12.03
2019-03-28T23:23:33.704Z,12.90
2019-03-28T23:28:59.830Z,7.20
2019-03-28T23:31:29.675Z,9.03
2019-03-28T23:33:59.802Z,13.70
2019-03-28T23:36:37.338Z,13.53
2019-03-28T23:39:26.020Z,11.87
2019-03-28T23:42:17.636Z,13.80
2019-03-28T23:44:46.240Z,10.93
2019-03-28T23:47:16.077Z,5.10
2019-03-28T23:50:04.661Z,10.73
2019-03-28T23:52:34.533Z,10.03
2019-03-28T23:55:04.431Z,11.47
2019-03-28T23:57:34.443Z,13.67
